createdAt,value
2022-08-17T00:02:25.513Z,147628.56
2022-08-17T00:04:55.618Z,147611.44
2022-08-17T00:07:23.325Z,147576.00
2022-08-17T00:09:50.430Z,147524.72
2022-08-17T00:12:43.611Z,147632.22
2022-08-17T00:15:10.606Z,147615.13
2022-08-17T00:17:38.315Z,147629.75
2022-08-17T00:20:06.308Z,147634.66
2022-08-17T00:22:46.686Z,147656.66
2022-08-17T00:25:17.300Z,147650.56
2022-08-17T00:27:44.370Z,147646.88
2022-08-17T00:30:12.624Z,147649.31
2022-08-17T00:33:12.286Z,147621.22
2022-08-17T00:35:33.528Z,147618.78
2022-08-17T00:38:00.572Z,147620.00
2022-08-17T00:40:27.604Z,147598.00
2022-08-17T00:43:20.868Z,147618.78
2022-08-17T00:45:49.284Z,147620.00
2022-08-17T00:48:29.517Z,147599.22
2022-08-17T00:51:06.736Z,147572.38
2022-08-17T00:53:38.641Z,147593.13
2022-08-17T00:56:10.754Z,147588.22
2022-08-17T00:58:38.491Z,147588.22
2022-08-17T01:01:08.538Z,147573.59
2022-08-17T01:03:38.057Z,147470.91
2022-08-17T01:06:06.572Z,147502.72
2022-08-17T01:08:35.384Z,147507.59
2022-08-17T01:11:03.067Z,147392.75
2022-08-17T01:13:41.431Z,147478.25
2022-08-17T01:16:17.074Z,147480.72
2022-08-17T01:18:47.018Z,147452.59
2022-08-17T01:21:40.264Z,147439.22
2022-08-17T01:24:08.363Z,147451.38
2022-08-17T01:26:36.839Z,147444.09
2022-08-17T01:29:05.211Z,147456.28
2022-08-17T01:31:39.373Z,147429.41
2022-08-17T01:34:10.556Z,147375.72
2022-08-17T01:36:40.075Z,147390.34
2022-08-17T01:39:12.094Z,147364.69
2022-08-17T01:41:40.985Z,147351.25
2022-08-17T01:44:08.428Z,147361.03
2022-08-17T01:46:37.136Z,147336.63
2022-08-17T01:49:10.616Z,147312.22
2022-08-17T01:51:39.073Z,147256.06
2022-08-17T01:54:10.608Z,147300.00
2022-08-17T01:56:44.292Z,147309.75
2022-08-17T01:59:16.084Z,147334.19
2022-08-17T02:01:43.499Z,147329.31
2022-08-17T02:04:11.905Z,147298.78
2022-08-17T02:06:45.268Z,147309.75
2022-08-17T02:09:23.273Z,147307.34
2022-08-17T02:11:54.705Z,147317.09
2022-08-17T02:14:23.393Z,147293.91
2022-08-17T02:16:50.722Z,147302.47
2022-08-17T02:19:18.168Z,147295.13
2022-08-17T02:21:48.349Z,147290.22
2022-08-17T02:24:58.741Z,147280.47
2022-08-17T02:27:10.166Z,147258.50
2022-08-17T02:29:37.741Z,147273.13
2022-08-17T02:32:05.191Z,147275.59
2022-08-17T02:34:32.636Z,147260.97
2022-08-17T02:36:59.668Z,147268.25
2022-08-17T02:39:26.795Z,147263.38
2022-08-17T02:42:01.902Z,147241.34
2022-08-17T02:44:40.010Z,147179.13
2022-08-17T02:47:09.377Z,147247.53
2022-08-17T02:49:37.121Z,147234.06
2022-08-17T02:52:06.606Z,147268.25
2022-08-17T02:54:40.017Z,147274.38
2022-08-17T02:57:10.241Z,147236.47
2022-08-17T02:59:39.243Z,147184.00
2022-08-17T03:02:08.071Z,147254.81
2022-08-17T03:04:35.633Z,147253.63
2022-08-17T03:07:04.958Z,147258.50
2022-08-17T03:09:32.742Z,147259.72
2022-08-17T03:12:08.412Z,147242.59
2022-08-17T03:14:41.716Z,147253.63
2022-08-17T03:17:10.180Z,147252.41
2022-08-17T03:19:42.893Z,147246.28
2022-08-17T03:22:36.556Z,147230.38
2022-08-17T03:24:58.076Z,147247.53
2022-08-17T03:27:25.213Z,147231.59
2022-08-17T03:29:52.237Z,147247.53
2022-08-17T03:32:20.571Z,147243.81
2022-08-17T03:34:47.903Z,147226.72
2022-08-17T03:37:15.273Z,147221.84
2022-08-17T03:39:42.831Z,147171.78
2022-08-17T03:42:32.247Z,147210.88
2022-08-17T03:45:02.001Z,147194.97
2022-08-17T03:47:47.951Z,147206.00
2022-08-17T03:50:35.308Z,147192.56
2022-08-17T03:53:27.742Z,147201.13
2022-08-17T03:56:17.494Z,147221.84
2022-08-17T03:58:45.794Z,147232.81
2022-08-17T04:01:13.919Z,147202.31
2022-08-17T04:03:40.998Z,147231.59
2022-08-17T04:06:08.055Z,147221.84
2022-08-17T04:08:35.608Z,147215.75
2022-08-17T04:11:02.884Z,147229.19
2022-08-17T04:13:29.902Z,147251.16
2022-08-17T04:15:59.119Z,147257.28
2022-08-17T04:18:26.182Z,147282.88
2022-08-17T04:20:53.732Z,147275.59
2022-08-17T04:23:20.875Z,147281.69
2022-08-17T04:25:50.085Z,147276.81
2022-08-17T04:28:19.442Z,147279.28
2022-08-17T04:30:47.854Z,147271.94
2022-08-17T04:33:26.547Z,147276.81
2022-08-17T04:35:56.384Z,147295.13
2022-08-17T04:38:26.738Z,147291.44
2022-08-17T04:41:13.099Z,147275.59
2022-08-17T04:43:42.327Z,147273.13
2022-08-17T04:46:27.025Z,147165.72
2022-08-17T04:48:57.086Z,147290.22
2022-08-17T04:51:39.852Z,147301.19
2022-08-17T04:54:21.011Z,147306.09
2022-08-17T04:56:48.102Z,147329.31
2022-08-17T04:59:21.532Z,147334.19
2022-08-17T05:01:51.645Z,147352.50
2022-08-17T05:04:33.966Z,147372.03
2022-08-17T05:07:04.474Z,147373.25
2022-08-17T05:09:32.217Z,147384.25
2022-08-17T05:12:03.054Z,147309.75
2022-08-17T05:14:33.000Z,147385.47
2022-08-17T05:17:01.478Z,147389.13
2022-08-17T05:19:31.190Z,147403.78
2022-08-17T05:21:58.259Z,147415.97
2022-08-17T05:24:41.251Z,147428.19
2022-08-17T05:27:10.944Z,147456.28
2022-08-17T05:29:46.074Z,147470.91
2022-08-17T05:32:38.357Z,147492.94
2022-08-17T05:35:01.493Z,147455.06
2022-08-17T05:37:28.599Z,147534.47
2022-08-17T05:39:55.664Z,147554.06
2022-08-17T05:42:23.030Z,147600.47
2022-08-17T05:44:50.192Z,147588.22
2022-08-17T05:47:18.292Z,147616.31
2022-08-17T05:49:45.591Z,147583.34
2022-08-17T05:52:37.997Z,147622.47
2022-08-17T05:55:19.054Z,147661.53
2022-08-17T05:57:55.917Z,147684.75
2022-08-17T06:00:52.828Z,147695.78
2022-08-17T06:03:49.270Z,147705.53
2022-08-17T06:06:34.469Z,147744.66
2022-08-17T06:09:08.673Z,147781.34
2022-08-17T06:11:41.585Z,147830.25
2022-08-17T06:14:14.430Z,147859.56
2022-08-17T06:16:46.231Z,147896.25
2022-08-17T06:19:21.583Z,147852.25
2022-08-17T06:21:52.823Z,147957.44
2022-08-17T06:24:37.515Z,147962.34
2022-08-17T06:27:12.659Z,147950.09
2022-08-17T06:30:00.174Z,148013.69
2022-08-17T06:32:28.410Z,147947.63
2022-08-17T06:34:55.689Z,148025.94
2022-08-17T06:37:45.538Z,148060.16
2022-08-17T06:40:45.458Z,148067.50
2022-08-17T06:43:54.193Z,148116.41
2022-08-17T06:46:36.339Z,148109.09
2022-08-17T06:49:19.709Z,148121.31
2022-08-17T06:51:58.044Z,148089.50
2022-08-17T06:54:55.359Z,148151.94
2022-08-17T06:57:28.269Z,148192.31
2022-08-17T07:00:02.388Z,148181.28
2022-08-17T07:03:00.675Z,148229.03
2022-08-17T07:05:32.931Z,148238.81
2022-08-17T07:08:18.563Z,148273.06
2022-08-17T07:10:54.523Z,148286.53
2022-08-17T07:13:33.165Z,148371.03
2022-08-17T07:16:30.736Z,148386.94
2022-08-17T07:18:59.327Z,148424.88
2022-08-17T07:21:40.709Z,148444.50
2022-08-17T07:24:30.558Z,148487.31
2022-08-17T07:27:24.002Z,148549.84
2022-08-17T07:30:10.269Z,148548.56
2022-08-17T07:32:50.814Z,148568.19
2022-08-17T07:35:37.635Z,148608.59
2022-08-17T07:38:28.154Z,148604.94
2022-08-17T07:41:01.829Z,148629.41
2022-08-17T07:43:41.239Z,148669.84
2022-08-17T07:46:29.765Z,148664.97
2022-08-17T07:49:16.686Z,148726.25
2022-08-17T07:51:43.812Z,148755.63
2022-08-17T07:54:22.083Z,148819.34
2022-08-17T07:56:50.668Z,148895.34
2022-08-17T07:59:27.269Z,148976.25
2022-08-17T08:02:02.301Z,149015.50
2022-08-17T08:04:59.679Z,149084.19
2022-08-17T08:07:37.193Z,149132.00
2022-08-17T08:10:25.492Z,149177.38
2022-08-17T08:13:22.972Z,149219.06
2022-08-17T08:15:54.024Z,149195.78
2022-08-17T08:18:54.423Z,149241.16
2022-08-17T08:22:03.106Z,149223.97
2022-08-17T08:24:52.010Z,149268.19
2022-08-17T08:27:34.175Z,149263.31
2022-08-17T08:30:21.269Z,149255.91
2022-08-17T08:32:57.700Z,149243.66
2022-08-17T08:35:30.907Z,149199.47
2022-08-17T08:38:16.436Z,149209.28
2022-08-17T08:41:16.352Z,149252.22
2022-08-17T08:44:00.662Z,149292.72
2022-08-17T08:46:59.805Z,149323.41
2022-08-17T08:50:37.445Z,149324.63
2022-08-17T08:53:18.853Z,149362.63
2022-08-17T08:56:06.496Z,149365.13
2022-08-17T08:58:44.975Z,149365.13
2022-08-17T09:01:44.770Z,149410.50
2022-08-17T09:05:02.616Z,149422.81
2022-08-17T09:07:37.319Z,149420.38
2022-08-17T09:10:39.429Z,149447.38
2022-08-17T09:13:21.995Z,149453.50
2022-08-17T09:15:58.983Z,149463.31
2022-08-17T09:19:02.354Z,149474.38
2022-08-17T09:21:33.683Z,149457.19
2022-08-17T09:24:20.777Z,149436.31
2022-08-17T09:26:54.360Z,149408.03
2022-08-17T09:29:25.398Z,149334.44
2022-08-17T09:32:03.800Z,149349.13
2022-08-17T09:34:44.639Z,149263.31
2022-08-17T09:37:54.084Z,149241.16
2022-08-17T09:40:30.802Z,149211.75
2022-08-17T09:43:30.473Z,149150.41
2022-08-17T09:46:09.078Z,149111.19
2022-08-17T09:48:41.947Z,149025.31
2022-08-17T09:51:40.110Z,149084.19
2022-08-17T09:54:38.142Z,149096.47
2022-08-17T09:57:32.475Z,149136.91
2022-08-17T10:00:16.929Z,149182.28
2022-08-17T10:03:41.240Z,149222.75
2022-08-17T10:06:21.794Z,149329.53
2022-08-17T10:09:08.708Z,149370.00
2022-08-17T10:12:11.133Z,149420.38
2022-08-17T10:14:43.467Z,149473.13
2022-08-17T10:17:26.215Z,149562.72
2022-08-17T10:20:11.270Z,149605.72
2022-08-17T10:23:19.685Z,149635.22
2022-08-17T10:26:14.127Z,149637.66
2022-08-17T10:28:58.633Z,149604.50
2022-08-17T10:31:46.375Z,149579.97
2022-08-17T10:34:44.467Z,149582.41
2022-08-17T10:37:49.621Z,149571.34
2022-08-17T10:40:45.409Z,149435.09
2022-08-17T10:43:29.115Z,149478.03
2022-08-17T10:46:30.090Z,149359.00
2022-08-17T10:49:16.682Z,149521.00
2022-08-17T10:51:47.765Z,149562.72
2022-08-17T10:54:38.787Z,149491.53
2022-08-17T10:57:31.593Z,149494.00
2022-08-17T10:59:59.359Z,149431.41
2022-08-17T11:02:27.382Z,149400.69
2022-08-17T11:05:00.180Z,149295.19
2022-08-17T11:07:48.825Z,149302.53
2022-08-17T11:10:37.492Z,149328.31
2022-08-17T11:13:23.105Z,149336.91
2022-08-17T11:16:08.786Z,149381.03
2022-08-17T11:19:17.228Z,149385.94
2022-08-17T11:21:56.582Z,149366.31
2022-08-17T11:24:38.983Z,149336.91
2022-08-17T11:27:29.042Z,149325.84
2022-08-17T11:30:02.080Z,149344.22
2022-08-17T11:32:58.325Z,149349.13
2022-08-17T11:35:38.679Z,149339.34
2022-08-17T11:38:25.713Z,149316.03
2022-08-17T11:41:27.326Z,149312.34
2022-08-17T11:44:18.481Z,149276.78
2022-08-17T11:47:36.617Z,149211.75
2022-08-17T11:50:46.347Z,149254.72
2022-08-17T11:53:38.495Z,149295.19
2022-08-17T11:56:11.944Z,149365.13
2022-08-17T11:58:44.018Z,149411.72
2022-08-17T12:01:13.723Z,149417.91
2022-08-17T12:03:54.289Z,149416.69
2022-08-17T12:06:31.782Z,149540.63
2022-08-17T12:09:18.984Z,149638.84
2022-08-17T12:11:58.664Z,149727.28
2022-08-17T12:15:08.979Z,149764.19
2022-08-17T12:17:52.274Z,149797.31
2022-08-17T12:20:37.093Z,149853.81
2022-08-17T12:23:44.174Z,149953.38
2022-08-17T12:26:19.752Z,150059.06
2022-08-17T12:28:49.808Z,150149.97
2022-08-17T12:31:24.606Z,150095.94
2022-08-17T12:33:52.520Z,150140.16
2022-08-17T12:36:24.671Z,150019.69
2022-08-17T12:39:13.756Z,150177.00
2022-08-17T12:41:46.759Z,150228.69
2022-08-17T12:44:50.446Z,150206.59
2022-08-17T12:47:22.627Z,150236.06
2022-08-17T12:49:51.481Z,150205.31
2022-08-17T12:52:24.961Z,150152.44
2022-08-17T12:55:06.790Z,150140.16
2022-08-17T12:57:47.460Z,150167.19
2022-08-17T13:00:23.219Z,150218.84
2022-08-17T13:03:13.607Z,150240.97
2022-08-17T13:05:53.791Z,150196.72
2022-08-17T13:08:28.818Z,150218.84
2022-08-17T13:11:10.066Z,150145.06
2022-08-17T13:13:41.313Z,150265.53
2022-08-17T13:16:11.336Z,150323.34
2022-08-17T13:18:47.913Z,150317.22
2022-08-17T13:21:26.662Z,150236.06
2022-08-17T13:24:01.480Z,150159.78
2022-08-17T13:26:37.599Z,150148.75
2022-08-17T13:29:07.958Z,150157.38
2022-08-17T13:31:51.993Z,150207.81
2022-08-17T13:34:25.417Z,150120.50
2022-08-17T13:37:18.354Z,150129.09
2022-08-17T13:39:48.300Z,150164.72
2022-08-17T13:42:50.411Z,150189.38
2022-08-17T13:45:34.848Z,150227.47
2022-08-17T13:48:15.717Z,150161.06
2022-08-17T13:50:54.676Z,150270.47
2022-08-17T13:53:27.540Z,150218.84
2022-08-17T13:55:58.950Z,150105.75
2022-08-17T13:58:38.035Z,150081.16
2022-08-17T14:01:28.723Z,150105.75
2022-08-17T14:03:57.283Z,150028.28
2022-08-17T14:06:52.504Z,150027.06
2022-08-17T14:09:24.094Z,150022.16
2022-08-17T14:11:51.598Z,150062.72
2022-08-17T14:14:18.946Z,150086.06
2022-08-17T14:16:46.002Z,150169.66
2022-08-17T14:19:14.348Z,150093.47
2022-08-17T14:21:44.107Z,150095.94
2022-08-17T14:24:21.096Z,150081.16
2022-08-17T14:26:49.392Z,150130.31
2022-08-17T14:29:16.746Z,150142.63
2022-08-17T14:31:48.526Z,150130.31
2022-08-17T14:34:25.002Z,150163.50
2022-08-17T14:36:52.376Z,150153.66
2022-08-17T14:39:20.016Z,150072.53
2022-08-17T14:41:47.831Z,150167.19
2022-08-17T14:44:15.225Z,150238.50
2022-08-17T14:46:44.516Z,150236.06
2022-08-17T14:49:12.823Z,150164.72
2022-08-17T14:51:44.392Z,150159.78
2022-08-17T14:54:32.830Z,150119.28
2022-08-17T14:57:22.531Z,150167.19
2022-08-17T14:59:53.234Z,150225.03
2022-08-17T15:02:29.297Z,150196.72
2022-08-17T15:05:05.948Z,150234.84
2022-08-17T15:07:33.009Z,150152.44
2022-08-17T15:10:01.431Z,150153.66
2022-08-17T15:12:33.299Z,150168.41
2022-08-17T15:15:05.440Z,150250.81
2022-08-17T15:17:44.333Z,150242.19
2022-08-17T15:20:17.347Z,150217.63
2022-08-17T15:22:46.204Z,150149.97
2022-08-17T15:25:13.751Z,150189.38
2022-08-17T15:27:41.421Z,150280.34
2022-08-17T15:30:10.011Z,150332.00
2022-08-17T15:32:40.472Z,150430.34
2022-08-17T15:35:11.364Z,150467.25
2022-08-17T15:37:40.240Z,150459.84
2022-08-17T15:40:09.883Z,150533.69
2022-08-17T15:42:38.468Z,150424.22
2022-08-17T15:45:09.855Z,150300.00
2022-08-17T15:47:37.691Z,150288.91
2022-08-17T15:50:07.070Z,150381.16
2022-08-17T15:52:39.942Z,150523.84
2022-08-17T15:55:11.804Z,150575.56
2022-08-17T15:57:39.262Z,150522.63
2022-08-17T16:00:08.652Z,150452.50
2022-08-17T16:03:46.978Z,150585.38
2022-08-17T16:05:31.895Z,150602.56
2022-08-17T16:07:59.720Z,150726.88
2022-08-17T16:10:35.729Z,150837.66
2022-08-17T16:13:04.478Z,150982.97
2022-08-17T16:15:32.123Z,151035.94
2022-08-17T16:17:59.550Z,151205.91
2022-08-17T16:20:27.059Z,151393.25
2022-08-17T16:22:54.991Z,151399.41
2022-08-17T16:25:52.411Z,151425.25
2022-08-17T16:28:17.199Z,151558.38
2022-08-17T16:30:44.827Z,151256.41
2022-08-17T16:33:12.277Z,150863.53
2022-08-17T16:35:39.498Z,150934.94
2022-08-17T16:38:07.046Z,151092.56
2022-08-17T16:40:36.161Z,151016.25
2022-08-17T16:43:09.135Z,151166.50
2022-08-17T16:45:40.216Z,151398.19
2022-08-17T16:48:08.993Z,151420.31
2022-08-17T16:50:36.713Z,151425.25
2022-08-17T16:53:10.515Z,151412.97
2022-08-17T16:55:38.360Z,151544.81
2022-08-17T16:58:06.431Z,151745.78
2022-08-17T17:00:33.948Z,151710.03
2022-08-17T17:03:18.931Z,151703.88
2022-08-17T17:06:13.572Z,151590.44
2022-08-17T17:08:46.614Z,151446.22
2022-08-17T17:11:33.664Z,151536.19
2022-08-17T17:14:15.214Z,151350.06
2022-08-17T17:17:18.803Z,151274.94
2022-08-17T17:19:56.746Z,151045.78
2022-08-17T17:22:41.062Z,150981.72
2022-08-17T17:25:17.517Z,151092.56
2022-08-17T17:27:57.094Z,151196.06
2022-08-17T17:30:47.248Z,151096.25
2022-08-17T17:33:19.610Z,151109.81
2022-08-17T17:36:08.047Z,150733.06
2022-08-17T17:38:48.945Z,150424.22
2022-08-17T17:41:26.464Z,150194.28
2022-08-17T17:44:08.019Z,150039.38
2022-08-17T17:46:50.819Z,149948.44
2022-08-17T17:49:18.610Z,149914.03
2022-08-17T17:52:14.335Z,149853.81
2022-08-17T17:55:24.778Z,149798.53
2022-08-17T17:58:16.583Z,149740.81
2022-08-17T18:01:15.586Z,149717.44
2022-08-17T18:04:03.109Z,149695.38
2022-08-17T18:07:15.141Z,149687.97
2022-08-17T18:10:29.807Z,149613.09
2022-08-17T18:13:09.804Z,149594.69
2022-08-17T18:15:51.252Z,149567.63
2022-08-17T18:18:18.329Z,149560.25
2022-08-17T18:20:56.259Z,149500.13
2022-08-17T18:23:28.311Z,149454.72
2022-08-17T18:25:58.475Z,149462.09
2022-08-17T18:28:31.518Z,149415.47
2022-08-17T18:31:20.939Z,149393.31
2022-08-17T18:33:51.551Z,149346.72
2022-08-17T18:36:36.425Z,149280.47
2022-08-17T18:39:15.242Z,149306.22
2022-08-17T18:41:45.648Z,149282.91
2022-08-17T18:44:31.104Z,149228.88
2022-08-17T18:47:16.451Z,149223.97
2022-08-17T18:49:46.709Z,149192.09
2022-08-17T18:52:22.018Z,149165.09
2022-08-17T18:55:16.247Z,149143.06
2022-08-17T18:57:51.303Z,149138.16
2022-08-17T19:00:21.247Z,149117.31
2022-08-17T19:02:54.669Z,149121.00
2022-08-17T19:05:37.701Z,149089.09
2022-08-17T19:08:20.082Z,149076.78
2022-08-17T19:10:55.612Z,149046.16
2022-08-17T19:13:29.387Z,148983.63
2022-08-17T19:16:11.610Z,149027.78
2022-08-17T19:19:21.013Z,149055.97
2022-08-17T19:21:53.134Z,149033.88
2022-08-17T19:24:23.594Z,149008.13
2022-08-17T19:27:06.212Z,148995.91
2022-08-17T19:29:55.558Z,149000.78
2022-08-17T19:32:27.096Z,148966.44
2022-08-17T19:34:55.872Z,148934.59
2022-08-17T19:37:28.632Z,148917.44
2022-08-17T19:40:01.621Z,148887.97
2022-08-17T19:42:51.553Z,148897.75
2022-08-17T19:46:05.794Z,148878.16
2022-08-17T19:49:11.276Z,148862.25
2022-08-17T19:51:41.471Z,148853.69
2022-08-17T19:54:38.087Z,148858.56
2022-08-17T19:57:20.682Z,148853.69
2022-08-17T20:00:00.486Z,148884.28
2022-08-17T20:02:30.386Z,148907.59
2022-08-17T20:05:01.937Z,148905.13
2022-08-17T20:07:43.385Z,148907.59
2022-08-17T20:10:20.534Z,148887.97
2022-08-17T20:12:51.682Z,148861.00
2022-08-17T20:15:29.568Z,148865.91
2022-08-17T20:18:00.206Z,148868.38
2022-08-17T20:20:49.113Z,148850.00
2022-08-17T20:23:43.336Z,148813.22
2022-08-17T20:26:26.276Z,148792.38
2022-08-17T20:29:15.122Z,148775.25
2022-08-17T20:31:42.249Z,148748.28
2022-08-17T20:34:33.748Z,148736.03
2022-08-17T20:37:07.237Z,148731.13
2022-08-17T20:39:40.544Z,148709.03
2022-08-17T20:42:27.813Z,148684.53
2022-08-17T20:44:58.210Z,148678.44
2022-08-17T20:48:00.946Z,148650.22
2022-08-17T20:50:38.979Z,148638.00
2022-08-17T20:53:09.979Z,148611.06
2022-08-17T20:55:51.990Z,148609.84
2022-08-17T20:58:23.174Z,148600.03
2022-08-17T21:00:56.213Z,148603.69
2022-08-17T21:03:23.946Z,148596.38
2022-08-17T21:06:00.737Z,148547.38
2022-08-17T21:08:33.841Z,148516.69
2022-08-17T21:11:57.001Z,148500.78
2022-08-17T21:14:33.567Z,148515.47
2022-08-17T21:17:06.683Z,148491.00
2022-08-17T21:20:13.546Z,148483.63
2022-08-17T21:22:48.759Z,148475.06
2022-08-17T21:25:37.075Z,148471.44
2022-08-17T21:28:20.527Z,148407.75
2022-08-17T21:30:56.391Z,148439.59
2022-08-17T21:33:37.605Z,148429.75
2022-08-17T21:36:11.513Z,148427.34
2022-08-17T21:38:47.441Z,148429.75
2022-08-17T21:41:27.263Z,148423.66
2022-08-17T21:44:02.729Z,148410.19
2022-08-17T21:46:36.753Z,148407.75
2022-08-17T21:49:13.590Z,148394.28
2022-08-17T21:51:49.871Z,148393.03
2022-08-17T21:54:36.789Z,148388.16
2022-08-17T21:57:18.022Z,148380.81
2022-08-17T21:59:45.180Z,148366.16
2022-08-17T22:02:21.261Z,148367.38
2022-08-17T22:05:00.434Z,148336.69
2022-08-17T22:08:02.294Z,148322.03
2022-08-17T22:10:43.665Z,148324.50
2022-08-17T22:13:19.782Z,148292.66
2022-08-17T22:16:15.335Z,148287.78
2022-08-17T22:18:58.657Z,148273.06
2022-08-17T22:21:26.074Z,148265.75
2022-08-17T22:24:06.109Z,148251.06
2022-08-17T22:27:12.880Z,148302.44
2022-08-17T22:29:57.179Z,148296.31
2022-08-17T22:32:41.562Z,148243.69
2022-08-17T22:35:37.759Z,148241.22
2022-08-17T22:38:19.826Z,148246.19
2022-08-17T22:40:49.902Z,148226.56
2022-08-17T22:43:21.175Z,148229.03
2022-08-17T22:45:57.188Z,148211.88
2022-08-17T22:48:27.478Z,148214.34
2022-08-17T22:51:13.804Z,148207.00
2022-08-17T22:54:14.872Z,148192.31
2022-08-17T22:57:18.690Z,148167.81
2022-08-17T22:59:55.014Z,148087.06
2022-08-17T23:02:28.551Z,148144.53
2022-08-17T23:05:18.859Z,148133.53
2022-08-17T23:07:47.194Z,148139.66
2022-08-17T23:10:14.749Z,148030.81
2022-08-17T23:12:42.097Z,148021.00
2022-08-17T23:15:14.275Z,148056.47
2022-08-17T23:17:42.038Z,148069.94
2022-08-17T23:20:12.914Z,148040.59
2022-08-17T23:22:51.911Z,148040.59
2022-08-17T23:25:28.908Z,148036.91
2022-08-17T23:27:57.533Z,148025.94
2022-08-17T23:30:25.535Z,148016.09
2022-08-17T23:32:54.244Z,147991.66
2022-08-17T23:35:39.074Z,147974.53
2022-08-17T23:38:10.000Z,147956.19
2022-08-17T23:40:39.349Z,147873.00
2022-08-17T23:43:17.542Z,147948.88
2022-08-17T23:45:54.192Z,147957.44
2022-08-17T23:48:36.159Z,147915.84
2022-08-17T23:51:09.474Z,147928.03
2022-08-17T23:53:40.140Z,147913.38
2022-08-17T23:56:11.066Z,147910.91
2022-08-17T23:58:42.119Z,147893.81
